Airfield :
LOGIN :

Register | Disclaimer

   EN    FR    IT 

 










Legend :    VFR   Marginal VFR   IFR   Intensive IFR   Very Intensive IFR
Visi :
Ceiling :
>= 8 km
>= 3000ft
5 to 8 km
1000 to 3000 ft
1500m to 5 km
500 to 1000 ft
800 to 1500m
200 to 500 ft
< 800m
< 200 ft
Symbols :   Thunderstorms  Fog  Heavy snow  Heavy precipitations  Wind > 20 kt
SIGMETs :     Misc.  Thunderstorms  Icing  Turbulence  Mountain Waves  Volcanic Ashes






- Airport Elevation : 699 ft
- IATA code : PAD


EDLP - Paderborn Lippstadt

CURRENT METAR :
  • 220050Z 20016KT 9999 -RA OVC031 08/06 Q1000

EXPIRED METARs :
  • 220020Z 20015KT 9999 -RA BKN032 OVC039 08/05 Q1000
  • 212350Z 20015KT 9999 -RA OVC032 08/05 Q1001
  • 212320Z 20015KT 9999 -RA BKN035 BKN042 08/05 Q1002
  • 212250Z 21017KT 9999 FEW036 OVC046 09/05 Q1002
  • 212220Z 20015KT 9999 FEW028 BKN037 OVC047 09/04 Q1003
  • 212150Z 19016KT 9999 BKN039 BKN045 09/04 Q1003
  • 212120Z 19016KT 9999 BKN040 OVC047 09/03 Q1004
  • 212050Z 19015KT 9999 BKN042 09/03 Q1004
  • 212020Z 19016KT 9999 FEW043 09/03 Q1005

TAF TAF EDLP
Valid from the 22 at 00:00 until the 23 at 00:00 UTC


212300Z 2200/2224 20012KT 9999 BKN030
PROB30
TEMPO 2200/2205 20015G25KT RA
TEMPO 2211/2214 20015G25KT
BECMG 2214/2217 20015G25KT
BECMG 2217/2220 22020G35KT
PROB40
TEMPO 2220/2224 22025G40KT
PROB30
TEMPO 2222/2224 22025G50KT SHRA BKN015CB



MET'MAP, your aeronautical weather chart ! - Copyright ORBIFLY December 2007 - Disclaimer

ORBIFLY MET'MAP TEAM :

Programming & Development : Alexandra Zaïnal
Original concept : Baudouin d'Aumeries
Technical & hardware support : Manuel Goepfert
Assistance : Marc-Olivier Méhu




SOURCES & CREDITS :

   NOAA